sensor_id;sensor_type;location;lat;lon;timestamp;P1;durP1;ratioP1;P2;durP2;ratioP2
20391;SDS011;10355;53.688;10.078;2022-07-29T00:01:08;0.70;;;0.60;;
20391;SDS011;10355;53.688;10.078;2022-07-29T00:04:01;1.67;;;0.80;;
20391;SDS011;10355;53.688;10.078;2022-07-29T00:06:44;2.83;;;0.65;;
20391;SDS011;10355;53.688;10.078;2022-07-29T00:09:27;1.30;;;0.68;;
20391;SDS011;10355;53.688;10.078;2022-07-29T00:12:10;1.52;;;0.52;;
20391;SDS011;10355;53.688;10.078;2022-07-29T00:14:54;1.42;;;0.60;;
20391;SDS011;10355;53.688;10.078;2022-07-29T00:17:37;1.27;;;0.63;;
20391;SDS011;10355;53.688;10.078;2022-07-29T00:20:21;1.40;;;0.70;;
20391;SDS011;10355;53.688;10.078;2022-07-29T00:23:04;2.75;;;0.70;;
20391;SDS011;10355;53.688;10.078;2022-07-29T00:25:46;2.92;;;0.90;;
20391;SDS011;10355;53.688;10.078;2022-07-29T00:28:29;0.98;;;0.70;;
20391;SDS011;10355;53.688;10.078;2022-07-29T00:31:12;2.20;;;0.95;;
20391;SDS011;10355;53.688;10.078;2022-07-29T00:33:55;1.40;;;0.60;;
20391;SDS011;10355;53.688;10.078;2022-07-29T00:36:42;1.55;;;0.70;;
20391;SDS011;10355;53.688;10.078;2022-07-29T00:39:24;2.35;;;0.75;;
20391;SDS011;10355;53.688;10.078;2022-07-29T00:42:07;2.35;;;0.80;;
20391;SDS011;10355;53.688;10.078;2022-07-29T00:44:51;2.58;;;0.90;;
20391;SDS011;10355;53.688;10.078;2022-07-29T00:47:34;1.48;;;0.68;;
20391;SDS011;10355;53.688;10.078;2022-07-29T00:50:17;2.03;;;0.90;;
20391;SDS011;10355;53.688;10.078;2022-07-29T00:53:01;2.05;;;0.70;;
20391;SDS011;10355;53.688;10.078;2022-07-29T00:55:45;2.15;;;0.77;;
20391;SDS011;10355;53.688;10.078;2022-07-29T00:58:28;3.00;;;0.80;;
20391;SDS011;10355;53.688;10.078;2022-07-29T01:01:11;0.98;;;0.57;;
20391;SDS011;10355;53.688;10.078;2022-07-29T01:03:54;2.33;;;0.80;;
20391;SDS011;10355;53.688;10.078;2022-07-29T01:06:36;3.03;;;0.90;;
20391;SDS011;10355;53.688;10.078;2022-07-29T01:09:21;0.80;;;0.60;;
20391;SDS011;10355;53.688;10.078;2022-07-29T01:12:25;1.23;;;0.60;;
20391;SDS011;10355;53.688;10.078;2022-07-29T01:15:08;4.30;;;0.93;;
20391;SDS011;10355;53.688;10.078;2022-07-29T01:17:53;1.52;;;0.80;;
20391;SDS011;10355;53.688;10.078;2022-07-29T01:20:43;1.92;;;0.95;;
20391;SDS011;10355;53.688;10.078;2022-07-29T01:23:48;1.90;;;0.80;;
20391;SDS011;10355;53.688;10.078;2022-07-29T01:26:41;2.08;;;0.88;;
20391;SDS011;10355;53.688;10.078;2022-07-29T01:29:28;1.42;;;0.80;;
20391;SDS011;10355;53.688;10.078;2022-07-29T01:32:19;1.80;;;0.63;;
20391;SDS011;10355;53.688;10.078;2022-07-29T01:35:10;2.70;;;0.85;;
20391;SDS011;10355;53.688;10.078;2022-07-29T01:37:59;1.25;;;0.90;;
20391;SDS011;10355;53.688;10.078;2022-07-29T01:40:45;2.28;;;0.90;;
20391;SDS011;10355;53.688;10.078;2022-07-29T01:43:31;1.58;;;0.95;;
20391;SDS011;10355;53.688;10.078;2022-07-29T01:46:17;2.70;;;0.90;;
20391;SDS011;10355;53.688;10.078;2022-07-29T01:49:05;4.00;;;1.10;;
20391;SDS011;10355;53.688;10.078;2022-07-29T01:51:50;2.75;;;1.17;;
20391;SDS011;10355;53.688;10.078;2022-07-29T01:54:35;3.03;;;0.88;;
20391;SDS011;10355;53.688;10.078;2022-07-29T01:57:20;2.35;;;0.90;;
20391;SDS011;10355;53.688;10.078;2022-07-29T02:00:04;1.92;;;1.20;;
20391;SDS011;10355;53.688;10.078;2022-07-29T02:02:54;2.03;;;0.90;;
20391;SDS011;10355;53.688;10.078;2022-07-29T02:05:39;4.07;;;0.90;;
20391;SDS011;10355;53.688;10.078;2022-07-29T02:08:22;3.97;;;1.00;;
20391;SDS011;10355;53.688;10.078;2022-07-29T02:11:06;3.00;;;1.20;;
20391;SDS011;10355;53.688;10.078;2022-07-29T02:13:49;2.10;;;0.90;;
20391;SDS011;10355;53.688;10.078;2022-07-29T02:16:34;1.40;;;0.80;;
20391;SDS011;10355;53.688;10.078;2022-07-29T02:19:21;2.80;;;0.90;;
20391;SDS011;10355;53.688;10.078;2022-07-29T02:22:04;2.05;;;0.82;;
20391;SDS011;10355;53.688;10.078;2022-07-29T02:24:47;2.50;;;1.00;;
20391;SDS011;10355;53.688;10.078;2022-07-29T02:27:31;3.65;;;1.17;;
20391;SDS011;10355;53.688;10.078;2022-07-29T02:30:15;4.32;;;0.90;;
20391;SDS011;10355;53.688;10.078;2022-07-29T02:32:59;2.58;;;1.00;;
20391;SDS011;10355;53.688;10.078;2022-07-29T02:35:44;2.53;;;1.40;;
20391;SDS011;10355;53.688;10.078;2022-07-29T02:38:28;3.10;;;1.15;;
20391;SDS011;10355;53.688;10.078;2022-07-29T02:41:29;4.63;;;1.30;;
20391;SDS011;10355;53.688;10.078;2022-07-29T02:44:14;2.22;;;1.10;;
20391;SDS011;10355;53.688;10.078;2022-07-29T02:46:59;1.95;;;0.95;;
20391;SDS011;10355;53.688;10.078;2022-07-29T02:49:47;1.20;;;0.93;;
20391;SDS011;10355;53.688;10.078;2022-07-29T02:52:34;4.53;;;1.10;;
20391;SDS011;10355;53.688;10.078;2022-07-29T02:55:23;3.60;;;1.10;;
20391;SDS011;10355;53.688;10.078;2022-07-29T02:58:08;1.88;;;1.20;;
20391;SDS011;10355;53.688;10.078;2022-07-29T03:00:55;2.25;;;1.10;;
20391;SDS011;10355;53.688;10.078;2022-07-29T03:03:39;2.72;;;1.33;;
20391;SDS011;10355;53.688;10.078;2022-07-29T03:06:26;2.80;;;0.90;;
20391;SDS011;10355;53.688;10.078;2022-07-29T03:09:20;3.47;;;1.23;;
20391;SDS011;10355;53.688;10.078;2022-07-29T03:12:04;3.90;;;1.13;;
20391;SDS011;10355;53.688;10.078;2022-07-29T03:14:47;2.63;;;1.20;;
20391;SDS011;10355;53.688;10.078;2022-07-29T03:17:30;3.67;;;1.20;;
20391;SDS011;10355;53.688;10.078;2022-07-29T03:20:14;3.45;;;1.40;;
20391;SDS011;10355;53.688;10.078;2022-07-29T03:22:57;3.03;;;1.30;;
20391;SDS011;10355;53.688;10.078;2022-07-29T03:25:41;2.25;;;1.13;;
20391;SDS011;10355;53.688;10.078;2022-07-29T03:28:25;3.03;;;1.27;;
20391;SDS011;10355;53.688;10.078;2022-07-29T03:31:09;3.08;;;1.38;;
20391;SDS011;10355;53.688;10.078;2022-07-29T03:33:53;3.67;;;1.13;;
20391;SDS011;10355;53.688;10.078;2022-07-29T03:36:36;3.38;;;1.10;;
20391;SDS011;10355;53.688;10.078;2022-07-29T03:39:20;4.07;;;1.08;;
20391;SDS011;10355;53.688;10.078;2022-07-29T03:42:05;2.80;;;1.20;;
20391;SDS011;10355;53.688;10.078;2022-07-29T03:44:49;2.78;;;1.23;;
20391;SDS011;10355;53.688;10.078;2022-07-29T03:47:33;3.20;;;1.17;;
20391;SDS011;10355;53.688;10.078;2022-07-29T03:50:31;2.63;;;1.13;;
20391;SDS011;10355;53.688;10.078;2022-07-29T03:53:15;2.03;;;1.05;;
20391;SDS011;10355;53.688;10.078;2022-07-29T03:55:58;4.63;;;1.15;;
20391;SDS011;10355;53.688;10.078;2022-07-29T03:58:43;3.65;;;1.55;;
20391;SDS011;10355;53.688;10.078;2022-07-29T04:01:26;2.35;;;1.27;;
20391;SDS011;10355;53.688;10.078;2022-07-29T04:04:10;3.17;;;1.20;;
20391;SDS011;10355;53.688;10.078;2022-07-29T04:06:53;3.95;;;1.35;;
20391;SDS011;10355;53.688;10.078;2022-07-29T04:09:36;2.45;;;1.30;;
20391;SDS011;10355;53.688;10.078;2022-07-29T04:12:19;4.05;;;1.48;;
20391;SDS011;10355;53.688;10.078;2022-07-29T04:15:04;1.90;;;1.02;;
20391;SDS011;10355;53.688;10.078;2022-07-29T04:17:46;3.03;;;1.17;;
20391;SDS011;10355;53.688;10.078;2022-07-29T04:20:29;1.90;;;1.17;;
20391;SDS011;10355;53.688;10.078;2022-07-29T04:23:12;3.08;;;1.25;;
20391;SDS011;10355;53.688;10.078;2022-07-29T04:25:55;2.53;;;1.10;;
20391;SDS011;10355;53.688;10.078;2022-07-29T04:28:38;3.42;;;1.40;;
20391;SDS011;10355;53.688;10.078;2022-07-29T04:31:25;4.45;;;1.42;;
20391;SDS011;10355;53.688;10.078;2022-07-29T04:34:08;6.30;;;1.63;;
20391;SDS011;10355;53.688;10.078;2022-07-29T04:36:51;4.72;;;1.00;;
20391;SDS011;10355;53.688;10.078;2022-07-29T04:39:34;3.17;;;1.40;;
20391;SDS011;10355;53.688;10.078;2022-07-29T04:42:16;2.10;;;1.30;;
20391;SDS011;10355;53.688;10.078;2022-07-29T04:45:08;3.40;;;1.30;;
20391;SDS011;10355;53.688;10.078;2022-07-29T04:47:52;2.33;;;1.20;;
20391;SDS011;10355;53.688;10.078;2022-07-29T04:50:37;3.80;;;1.23;;
20391;SDS011;10355;53.688;10.078;2022-07-29T04:53:20;3.65;;;1.48;;
20391;SDS011;10355;53.688;10.078;2022-07-29T04:56:03;2.63;;;1.25;;
20391;SDS011;10355;53.688;10.078;2022-07-29T04:58:48;5.10;;;1.50;;
20391;SDS011;10355;53.688;10.078;2022-07-29T05:01:31;4.13;;;1.70;;
20391;SDS011;10355;53.688;10.078;2022-07-29T05:04:16;2.80;;;1.23;;
20391;SDS011;10355;53.688;10.078;2022-07-29T05:07:00;4.57;;;1.55;;
20391;SDS011;10355;53.688;10.078;2022-07-29T05:09:43;2.20;;;1.27;;
20391;SDS011;10355;53.688;10.078;2022-07-29T05:12:26;3.85;;;1.40;;
20391;SDS011;10355;53.688;10.078;2022-07-29T05:15:09;3.47;;;1.42;;
20391;SDS011;10355;53.688;10.078;2022-07-29T05:17:52;4.93;;;1.48;;
20391;SDS011;10355;53.688;10.078;2022-07-29T05:20:36;3.83;;;1.58;;
20391;SDS011;10355;53.688;10.078;2022-07-29T05:23:19;2.80;;;1.50;;
20391;SDS011;10355;53.688;10.078;2022-07-29T05:26:02;2.17;;;1.20;;
20391;SDS011;10355;53.688;10.078;2022-07-29T05:28:47;6.45;;;1.40;;
20391;SDS011;10355;53.688;10.078;2022-07-29T05:31:30;3.38;;;1.30;;
20391;SDS011;10355;53.688;10.078;2022-07-29T05:34:12;2.38;;;1.48;;
20391;SDS011;10355;53.688;10.078;2022-07-29T05:36:57;2.42;;;1.58;;
20391;SDS011;10355;53.688;10.078;2022-07-29T05:39:40;1.90;;;1.25;;
20391;SDS011;10355;53.688;10.078;2022-07-29T05:42:29;5.55;;;1.42;;
20391;SDS011;10355;53.688;10.078;2022-07-29T05:45:12;3.72;;;1.58;;
20391;SDS011;10355;53.688;10.078;2022-07-29T05:47:55;2.88;;;1.27;;
20391;SDS011;10355;53.688;10.078;2022-07-29T05:50:38;5.93;;;1.45;;
20391;SDS011;10355;53.688;10.078;2022-07-29T05:53:29;2.95;;;1.45;;
20391;SDS011;10355;53.688;10.078;2022-07-29T05:56:12;5.57;;;1.50;;
20391;SDS011;10355;53.688;10.078;2022-07-29T05:58:55;2.85;;;1.40;;
20391;SDS011;10355;53.688;10.078;2022-07-29T06:01:38;3.45;;;1.65;;
20391;SDS011;10355;53.688;10.078;2022-07-29T06:04:21;5.28;;;1.35;;
20391;SDS011;10355;53.688;10.078;2022-07-29T06:07:04;7.97;;;1.35;;
20391;SDS011;10355;53.688;10.078;2022-07-29T06:09:48;3.40;;;1.40;;
20391;SDS011;10355;53.688;10.078;2022-07-29T06:12:31;2.75;;;1.33;;
20391;SDS011;10355;53.688;10.078;2022-07-29T06:15:15;4.77;;;1.50;;
20391;SDS011;10355;53.688;10.078;2022-07-29T06:17:58;2.75;;;1.40;;
20391;SDS011;10355;53.688;10.078;2022-07-29T06:20:42;5.78;;;1.70;;
20391;SDS011;10355;53.688;10.078;2022-07-29T06:23:25;2.70;;;1.10;;
20391;SDS011;10355;53.688;10.078;2022-07-29T06:26:09;3.00;;;1.13;;
20391;SDS011;10355;53.688;10.078;2022-07-29T06:28:52;1.70;;;1.10;;
20391;SDS011;10355;53.688;10.078;2022-07-29T06:31:35;3.53;;;1.40;;
20391;SDS011;10355;53.688;10.078;2022-07-29T06:34:18;5.28;;;1.35;;
20391;SDS011;10355;53.688;10.078;2022-07-29T06:37:05;2.28;;;1.20;;
20391;SDS011;10355;53.688;10.078;2022-07-29T06:39:55;4.60;;;1.20;;
20391;SDS011;10355;53.688;10.078;2022-07-29T06:42:53;2.10;;;1.05;;
20391;SDS011;10355;53.688;10.078;2022-07-29T06:45:36;2.40;;;1.30;;
20391;SDS011;10355;53.688;10.078;2022-07-29T06:48:22;5.55;;;1.20;;
20391;SDS011;10355;53.688;10.078;2022-07-29T06:51:05;3.53;;;1.00;;
20391;SDS011;10355;53.688;10.078;2022-07-29T06:53:48;1.63;;;0.90;;
20391;SDS011;10355;53.688;10.078;2022-07-29T06:56:43;4.00;;;1.45;;
20391;SDS011;10355;53.688;10.078;2022-07-29T06:59:27;3.40;;;1.23;;
20391;SDS011;10355;53.688;10.078;2022-07-29T07:02:16;2.72;;;1.27;;
20391;SDS011;10355;53.688;10.078;2022-07-29T07:04:59;6.22;;;1.20;;
20391;SDS011;10355;53.688;10.078;2022-07-29T07:07:41;3.60;;;1.25;;
20391;SDS011;10355;53.688;10.078;2022-07-29T07:10:24;2.97;;;1.20;;
20391;SDS011;10355;53.688;10.078;2022-07-29T07:13:07;1.95;;;1.20;;
20391;SDS011;10355;53.688;10.078;2022-07-29T07:15:51;2.95;;;1.30;;
20391;SDS011;10355;53.688;10.078;2022-07-29T07:18:34;3.65;;;1.15;;
20391;SDS011;10355;53.688;10.078;2022-07-29T07:21:17;4.43;;;1.63;;
20391;SDS011;10355;53.688;10.078;2022-07-29T07:24:00;3.20;;;1.40;;
20391;SDS011;10355;53.688;10.078;2022-07-29T07:26:43;4.25;;;1.40;;
20391;SDS011;10355;53.688;10.078;2022-07-29T07:29:26;4.28;;;1.40;;
20391;SDS011;10355;53.688;10.078;2022-07-29T07:32:10;4.25;;;1.60;;
20391;SDS011;10355;53.688;10.078;2022-07-29T07:34:54;8.13;;;1.75;;
20391;SDS011;10355;53.688;10.078;2022-07-29T07:37:38;2.85;;;1.20;;
20391;SDS011;10355;53.688;10.078;2022-07-29T07:40:22;4.18;;;1.63;;
20391;SDS011;10355;53.688;10.078;2022-07-29T07:43:05;2.65;;;1.20;;
20391;SDS011;10355;53.688;10.078;2022-07-29T07:45:48;2.08;;;1.10;;
20391;SDS011;10355;53.688;10.078;2022-07-29T07:48:32;3.83;;;1.50;;
20391;SDS011;10355;53.688;10.078;2022-07-29T07:51:16;5.75;;;1.45;;
20391;SDS011;10355;53.688;10.078;2022-07-29T07:53:59;2.05;;;1.15;;
20391;SDS011;10355;53.688;10.078;2022-07-29T07:56:43;2.85;;;1.50;;
20391;SDS011;10355;53.688;10.078;2022-07-29T07:59:26;4.45;;;1.35;;
20391;SDS011;10355;53.688;10.078;2022-07-29T08:02:09;4.70;;;1.25;;
20391;SDS011;10355;53.688;10.078;2022-07-29T08:04:53;4.28;;;1.45;;
20391;SDS011;10355;53.688;10.078;2022-07-29T08:07:36;3.55;;;1.30;;
20391;SDS011;10355;53.688;10.078;2022-07-29T08:10:19;5.40;;;1.20;;
20391;SDS011;10355;53.688;10.078;2022-07-29T08:13:15;2.92;;;1.30;;
20391;SDS011;10355;53.688;10.078;2022-07-29T08:15:59;3.67;;;1.17;;
20391;SDS011;10355;53.688;10.078;2022-07-29T08:18:43;3.22;;;1.30;;
20391;SDS011;10355;53.688;10.078;2022-07-29T08:21:28;4.63;;;1.15;;
20391;SDS011;10355;53.688;10.078;2022-07-29T08:24:11;3.05;;;1.00;;
20391;SDS011;10355;53.688;10.078;2022-07-29T08:27:11;2.88;;;1.17;;
20391;SDS011;10355;53.688;10.078;2022-07-29T08:30:14;1.80;;;1.10;;
20391;SDS011;10355;53.688;10.078;2022-07-29T08:32:56;5.53;;;1.48;;
20391;SDS011;10355;53.688;10.078;2022-07-29T08:35:39;3.15;;;1.30;;
20391;SDS011;10355;53.688;10.078;2022-07-29T08:38:24;1.55;;;1.10;;
20391;SDS011;10355;53.688;10.078;2022-07-29T08:41:07;4.50;;;1.50;;
20391;SDS011;10355;53.688;10.078;2022-07-29T08:43:50;4.25;;;1.30;;
20391;SDS011;10355;53.688;10.078;2022-07-29T08:46:33;2.75;;;1.20;;
20391;SDS011;10355;53.688;10.078;2022-07-29T08:49:20;4.82;;;1.38;;
20391;SDS011;10355;53.688;10.078;2022-07-29T08:52:03;3.35;;;1.50;;
20391;SDS011;10355;53.688;10.078;2022-07-29T08:54:48;2.47;;;1.08;;
20391;SDS011;10355;53.688;10.078;2022-07-29T08:57:31;3.15;;;1.40;;
20391;SDS011;10355;53.688;10.078;2022-07-29T09:00:17;5.78;;;1.45;;
20391;SDS011;10355;53.688;10.078;2022-07-29T09:03:00;2.80;;;1.27;;
20391;SDS011;10355;53.688;10.078;2022-07-29T09:05:44;3.30;;;1.13;;
20391;SDS011;10355;53.688;10.078;2022-07-29T09:08:30;3.78;;;1.50;;
20391;SDS011;10355;53.688;10.078;2022-07-29T09:11:14;2.22;;;1.13;;
20391;SDS011;10355;53.688;10.078;2022-07-29T09:13:57;2.97;;;1.40;;
20391;SDS011;10355;53.688;10.078;2022-07-29T09:16:44;4.10;;;1.20;;
20391;SDS011;10355;53.688;10.078;2022-07-29T09:19:34;2.83;;;1.20;;
20391;SDS011;10355;53.688;10.078;2022-07-29T09:22:28;3.28;;;1.42;;
20391;SDS011;10355;53.688;10.078;2022-07-29T09:25:11;4.05;;;1.30;;
20391;SDS011;10355;53.688;10.078;2022-07-29T09:28:04;2.15;;;1.05;;
20391;SDS011;10355;53.688;10.078;2022-07-29T09:30:50;0.85;;;0.60;;
20391;SDS011;10355;53.688;10.078;2022-07-29T09:33:33;1.60;;;0.70;;
20391;SDS011;10355;53.688;10.078;2022-07-29T09:36:17;1.40;;;0.70;;
20391;SDS011;10355;53.688;10.078;2022-07-29T09:39:00;1.63;;;0.60;;
20391;SDS011;10355;53.688;10.078;2022-07-29T09:41:45;0.60;;;0.43;;
20391;SDS011;10355;53.688;10.078;2022-07-29T09:44:41;1.02;;;0.50;;
20391;SDS011;10355;53.688;10.078;2022-07-29T09:47:27;2.90;;;0.80;;
20391;SDS011;10355;53.688;10.078;2022-07-29T09:50:22;1.30;;;0.70;;
20391;SDS011;10355;53.688;10.078;2022-07-29T09:53:07;2.00;;;0.50;;
20391;SDS011;10355;53.688;10.078;2022-07-29T09:55:51;0.68;;;0.43;;
20391;SDS011;10355;53.688;10.078;2022-07-29T09:58:35;1.80;;;0.50;;
20391;SDS011;10355;53.688;10.078;2022-07-29T10:01:27;1.27;;;0.68;;
20391;SDS011;10355;53.688;10.078;2022-07-29T10:04:10;0.80;;;0.60;;
20391;SDS011;10355;53.688;10.078;2022-07-29T10:06:57;1.08;;;0.50;;
20391;SDS011;10355;53.688;10.078;2022-07-29T10:09:49;0.55;;;0.30;;
20391;SDS011;10355;53.688;10.078;2022-07-29T10:12:32;0.50;;;0.30;;
20391;SDS011;10355;53.688;10.078;2022-07-29T10:15:16;0.63;;;0.20;;
20391;SDS011;10355;53.688;10.078;2022-07-29T10:18:00;0.73;;;0.40;;
20391;SDS011;10355;53.688;10.078;2022-07-29T10:20:43;0.95;;;0.40;;
20391;SDS011;10355;53.688;10.078;2022-07-29T10:23:26;0.70;;;0.40;;
20391;SDS011;10355;53.688;10.078;2022-07-29T10:26:27;1.15;;;0.40;;
20391;SDS011;10355;53.688;10.078;2022-07-29T10:29:10;1.23;;;0.32;;
20391;SDS011;10355;53.688;10.078;2022-07-29T10:31:56;0.80;;;0.60;;
20391;SDS011;10355;53.688;10.078;2022-07-29T10:34:48;1.23;;;0.40;;
20391;SDS011;10355;53.688;10.078;2022-07-29T10:37:36;0.30;;;0.30;;
20391;SDS011;10355;53.688;10.078;2022-07-29T10:40:28;0.47;;;0.30;;
20391;SDS011;10355;53.688;10.078;2022-07-29T10:43:31;0.93;;;0.35;;
20391;SDS011;10355;53.688;10.078;2022-07-29T10:46:18;0.30;;;0.30;;
20391;SDS011;10355;53.688;10.078;2022-07-29T10:49:04;0.30;;;0.30;;
20391;SDS011;10355;53.688;10.078;2022-07-29T10:51:53;1.15;;;0.40;;
20391;SDS011;10355;53.688;10.078;2022-07-29T10:54:41;1.00;;;0.68;;
20391;SDS011;10355;53.688;10.078;2022-07-29T10:57:27;1.02;;;0.50;;
20391;SDS011;10355;53.688;10.078;2022-07-29T11:00:31;0.95;;;0.50;;
20391;SDS011;10355;53.688;10.078;2022-07-29T11:06:18;0.50;;;0.40;;
20391;SDS011;10355;53.688;10.078;2022-07-29T11:09:17;2.88;;;0.52;;
20391;SDS011;10355;53.688;10.078;2022-07-29T11:15:16;4.43;;;0.50;;
20391;SDS011;10355;53.688;10.078;2022-07-29T11:18:04;0.88;;;0.47;;
20391;SDS011;10355;53.688;10.078;2022-07-29T11:20:47;0.90;;;0.40;;
20391;SDS011;10355;53.688;10.078;2022-07-29T11:23:32;0.65;;;0.40;;
20391;SDS011;10355;53.688;10.078;2022-07-29T11:26:20;0.60;;;0.40;;
20391;SDS011;10355;53.688;10.078;2022-07-29T11:29:06;0.55;;;0.43;;
20391;SDS011;10355;53.688;10.078;2022-07-29T11:31:49;0.63;;;0.40;;
20391;SDS011;10355;53.688;10.078;2022-07-29T11:34:37;0.40;;;0.30;;
20391;SDS011;10355;53.688;10.078;2022-07-29T11:37:23;1.98;;;0.40;;
20391;SDS011;10355;53.688;10.078;2022-07-29T11:40:10;0.50;;;0.30;;
20391;SDS011;10355;53.688;10.078;2022-07-29T11:42:55;0.73;;;0.35;;
20391;SDS011;10355;53.688;10.078;2022-07-29T11:45:45;0.60;;;0.30;;
20391;SDS011;10355;53.688;10.078;2022-07-29T11:48:28;1.38;;;0.40;;
20391;SDS011;10355;53.688;10.078;2022-07-29T11:51:12;0.40;;;0.30;;
20391;SDS011;10355;53.688;10.078;2022-07-29T11:53:56;0.32;;;0.28;;
20391;SDS011;10355;53.688;10.078;2022-07-29T11:56:45;1.27;;;0.70;;
20391;SDS011;10355;53.688;10.078;2022-07-29T11:59:30;0.68;;;0.40;;
20391;SDS011;10355;53.688;10.078;2022-07-29T12:02:15;0.45;;;0.30;;
20391;SDS011;10355;53.688;10.078;2022-07-29T12:05:19;0.70;;;0.40;;
20391;SDS011;10355;53.688;10.078;2022-07-29T12:08:17;1.00;;;0.32;;
20391;SDS011;10355;53.688;10.078;2022-07-29T12:11:01;0.50;;;0.30;;
20391;SDS011;10355;53.688;10.078;2022-07-29T12:13:47;2.13;;;0.50;;
20391;SDS011;10355;53.688;10.078;2022-07-29T12:16:35;1.05;;;0.40;;
20391;SDS011;10355;53.688;10.078;2022-07-29T12:19:18;0.40;;;0.35;;
20391;SDS011;10355;53.688;10.078;2022-07-29T12:22:03;0.30;;;0.30;;
20391;SDS011;10355;53.688;10.078;2022-07-29T12:24:46;0.40;;;0.30;;
20391;SDS011;10355;53.688;10.078;2022-07-29T12:27:29;0.50;;;0.38;;
20391;SDS011;10355;53.688;10.078;2022-07-29T12:30:21;0.30;;;0.22;;
20391;SDS011;10355;53.688;10.078;2022-07-29T12:33:10;1.05;;;0.30;;
20391;SDS011;10355;53.688;10.078;2022-07-29T12:35:54;0.70;;;0.50;;
20391;SDS011;10355;53.688;10.078;2022-07-29T12:38:58;0.88;;;0.40;;
20391;SDS011;10355;53.688;10.078;2022-07-29T12:41:41;0.43;;;0.38;;
20391;SDS011;10355;53.688;10.078;2022-07-29T12:44:24;0.60;;;0.40;;
20391;SDS011;10355;53.688;10.078;2022-07-29T12:47:07;0.68;;;0.40;;
20391;SDS011;10355;53.688;10.078;2022-07-29T12:50:06;1.10;;;0.65;;
20391;SDS011;10355;53.688;10.078;2022-07-29T12:52:49;1.52;;;0.40;;
20391;SDS011;10355;53.688;10.078;2022-07-29T12:55:39;0.50;;;0.30;;
20391;SDS011;10355;53.688;10.078;2022-07-29T12:58:29;0.50;;;0.38;;
20391;SDS011;10355;53.688;10.078;2022-07-29T13:01:13;0.65;;;0.30;;
20391;SDS011;10355;53.688;10.078;2022-07-29T13:03:58;0.70;;;0.40;;
20391;SDS011;10355;53.688;10.078;2022-07-29T13:06:43;0.85;;;0.40;;
20391;SDS011;10355;53.688;10.078;2022-07-29T13:09:38;0.60;;;0.40;;
20391;SDS011;10355;53.688;10.078;2022-07-29T13:12:21;0.60;;;0.22;;
20391;SDS011;10355;53.688;10.078;2022-07-29T13:15:11;0.43;;;0.30;;
20391;SDS011;10355;53.688;10.078;2022-07-29T13:17:56;0.88;;;0.45;;
20391;SDS011;10355;53.688;10.078;2022-07-29T13:20:39;0.93;;;0.40;;
20391;SDS011;10355;53.688;10.078;2022-07-29T13:23:23;0.50;;;0.40;;
20391;SDS011;10355;53.688;10.078;2022-07-29T13:26:07;0.43;;;0.38;;
20391;SDS011;10355;53.688;10.078;2022-07-29T13:28:50;1.50;;;0.55;;
20391;SDS011;10355;53.688;10.078;2022-07-29T13:31:33;1.02;;;0.60;;
20391;SDS011;10355;53.688;10.078;2022-07-29T13:34:17;1.00;;;0.60;;
20391;SDS011;10355;53.688;10.078;2022-07-29T13:37:01;1.00;;;0.45;;
20391;SDS011;10355;53.688;10.078;2022-07-29T13:39:45;2.15;;;0.32;;
20391;SDS011;10355;53.688;10.078;2022-07-29T13:42:33;0.73;;;0.50;;
20391;SDS011;10355;53.688;10.078;2022-07-29T13:45:16;0.50;;;0.40;;
20391;SDS011;10355;53.688;10.078;2022-07-29T13:47:59;1.33;;;0.50;;
20391;SDS011;10355;53.688;10.078;2022-07-29T13:50:42;0.70;;;0.40;;
20391;SDS011;10355;53.688;10.078;2022-07-29T13:53:25;0.90;;;0.40;;
20391;SDS011;10355;53.688;10.078;2022-07-29T13:56:10;1.00;;;0.40;;
20391;SDS011;10355;53.688;10.078;2022-07-29T13:58:53;1.73;;;0.40;;
20391;SDS011;10355;53.688;10.078;2022-07-29T14:01:36;1.77;;;0.60;;
20391;SDS011;10355;53.688;10.078;2022-07-29T14:04:20;1.42;;;0.43;;
20391;SDS011;10355;53.688;10.078;2022-07-29T14:07:05;1.50;;;0.60;;
20391;SDS011;10355;53.688;10.078;2022-07-29T14:09:48;1.65;;;0.57;;
20391;SDS011;10355;53.688;10.078;2022-07-29T14:12:32;0.90;;;0.57;;
20391;SDS011;10355;53.688;10.078;2022-07-29T14:15:15;1.23;;;0.65;;
20391;SDS011;10355;53.688;10.078;2022-07-29T14:17:58;3.13;;;0.65;;
20391;SDS011;10355;53.688;10.078;2022-07-29T14:20:42;0.77;;;0.38;;
20391;SDS011;10355;53.688;10.078;2022-07-29T14:23:25;0.95;;;0.60;;
20391;SDS011;10355;53.688;10.078;2022-07-29T14:26:08;2.70;;;0.70;;
20391;SDS011;10355;53.688;10.078;2022-07-29T14:29:02;3.28;;;0.90;;
20391;SDS011;10355;53.688;10.078;2022-07-29T14:31:45;1.92;;;0.65;;
20391;SDS011;10355;53.688;10.078;2022-07-29T14:34:28;1.80;;;0.63;;
20391;SDS011;10355;53.688;10.078;2022-07-29T14:37:11;0.60;;;0.40;;
20391;SDS011;10355;53.688;10.078;2022-07-29T14:39:56;0.75;;;0.60;;
20391;SDS011;10355;53.688;10.078;2022-07-29T14:42:43;0.50;;;0.50;;
20391;SDS011;10355;53.688;10.078;2022-07-29T14:45:27;1.80;;;0.60;;
20391;SDS011;10355;53.688;10.078;2022-07-29T14:48:10;3.50;;;0.50;;
20391;SDS011;10355;53.688;10.078;2022-07-29T14:50:53;1.25;;;0.70;;
20391;SDS011;10355;53.688;10.078;2022-07-29T14:53:40;1.00;;;0.50;;
20391;SDS011;10355;53.688;10.078;2022-07-29T14:56:23;1.67;;;0.70;;
20391;SDS011;10355;53.688;10.078;2022-07-29T14:59:26;0.47;;;0.47;;
20391;SDS011;10355;53.688;10.078;2022-07-29T15:02:10;1.92;;;0.70;;
20391;SDS011;10355;53.688;10.078;2022-07-29T15:04:53;0.95;;;0.60;;
20391;SDS011;10355;53.688;10.078;2022-07-29T15:07:36;0.77;;;0.60;;
20391;SDS011;10355;53.688;10.078;2022-07-29T15:10:19;0.40;;;0.40;;
20391;SDS011;10355;53.688;10.078;2022-07-29T15:13:05;1.63;;;0.60;;
20391;SDS011;10355;53.688;10.078;2022-07-29T15:15:48;1.20;;;0.60;;
20391;SDS011;10355;53.688;10.078;2022-07-29T15:18:32;2.15;;;0.77;;
20391;SDS011;10355;53.688;10.078;2022-07-29T15:21:15;2.20;;;0.70;;
20391;SDS011;10355;53.688;10.078;2022-07-29T15:23:58;1.77;;;0.70;;
20391;SDS011;10355;53.688;10.078;2022-07-29T15:26:44;1.70;;;0.80;;
20391;SDS011;10355;53.688;10.078;2022-07-29T15:29:27;2.58;;;0.98;;
20391;SDS011;10355;53.688;10.078;2022-07-29T15:32:10;2.03;;;0.90;;
20391;SDS011;10355;53.688;10.078;2022-07-29T15:34:55;3.35;;;0.82;;
20391;SDS011;10355;53.688;10.078;2022-07-29T15:37:38;0.95;;;0.60;;
20391;SDS011;10355;53.688;10.078;2022-07-29T15:40:29;1.05;;;0.68;;
20391;SDS011;10355;53.688;10.078;2022-07-29T15:43:12;0.88;;;0.55;;
20391;SDS011;10355;53.688;10.078;2022-07-29T15:45:55;1.25;;;0.60;;
20391;SDS011;10355;53.688;10.078;2022-07-29T15:48:56;0.73;;;0.45;;
20391;SDS011;10355;53.688;10.078;2022-07-29T15:51:40;1.15;;;0.50;;
20391;SDS011;10355;53.688;10.078;2022-07-29T15:54:23;0.60;;;0.52;;
20391;SDS011;10355;53.688;10.078;2022-07-29T15:57:06;2.15;;;0.60;;
20391;SDS011;10355;53.688;10.078;2022-07-29T15:59:49;1.20;;;0.50;;
20391;SDS011;10355;53.688;10.078;2022-07-29T16:02:32;1.85;;;0.55;;
20391;SDS011;10355;53.688;10.078;2022-07-29T16:05:15;1.33;;;0.68;;
20391;SDS011;10355;53.688;10.078;2022-07-29T16:07:59;0.88;;;0.52;;
20391;SDS011;10355;53.688;10.078;2022-07-29T16:10:42;1.20;;;0.40;;
20391;SDS011;10355;53.688;10.078;2022-07-29T16:13:25;1.00;;;0.50;;
20391;SDS011;10355;53.688;10.078;2022-07-29T16:16:10;0.60;;;0.45;;
20391;SDS011;10355;53.688;10.078;2022-07-29T16:18:53;1.45;;;0.70;;
20391;SDS011;10355;53.688;10.078;2022-07-29T16:21:36;1.25;;;0.52;;
20391;SDS011;10355;53.688;10.078;2022-07-29T16:24:21;0.95;;;0.50;;
20391;SDS011;10355;53.688;10.078;2022-07-29T16:27:04;1.13;;;0.60;;